Time,TemperatureF,DewpointF,PressureIn,WindDirection,WindDirectionDegrees,WindSpeedMPH,WindSpeedGustMPH,Humidity,HourlyPrecipIn,Conditions,Clouds,dailyrainin,SoftwareType,DateUTC
2013-06-11 00:00:00,68.5,43.9,29.95,WNW,302,6.0,16.0,41,0.00,,---,0.00,VWS V14.01,2013-06-11 07:00:00,
2013-06-11 00:02:00,68.4,44.4,29.95,WSW,255,10.0,11.0,42,0.00,,---,0.00,VWS V14.01,2013-06-11 07:02:00,
2013-06-11 00:07:00,68.4,44.4,29.94,WNW,284,5.0,12.0,42,0.00,,---,0.00,VWS V14.01,2013-06-11 07:07:00,
2013-06-11 00:12:00,68.4,43.8,29.94,West,273,6.0,12.0,41,0.00,,---,0.00,VWS V14.01,2013-06-11 07:12:00,
2013-06-11 00:17:00,68.4,43.2,29.94,West,274,9.0,14.0,40,0.00,,---,0.00,VWS V14.01,2013-06-11 07:17:00,
2013-06-11 00:22:00,68.6,44.0,29.94,West,279,9.0,14.0,41,0.00,,---,0.00,VWS V14.01,2013-06-11 07:22:00,
2013-06-11 00:27:00,68.7,44.1,29.94,WNW,293,5.0,14.0,41,0.00,,---,0.00,VWS V14.01,2013-06-11 07:27:00,
2013-06-11 00:30:00,68.8,44.2,29.94,WSW,238,7.0,14.0,41,0.00,,---,0.00,VWS V14.01,2013-06-11 07:30:00,
2013-06-11 00:32:00,68.8,44.2,29.94,SW,232,5.0,13.0,41,0.00,,---,0.00,VWS V14.01,2013-06-11 07:32:00,
2013-06-11 00:37:00,68.6,44.0,29.94,West,274,8.0,13.0,41,0.00,,---,0.00,VWS V14.01,2013-06-11 07:37:00,
2013-06-11 00:42:00,68.7,43.4,29.94,WNW,300,8.0,13.0,40,0.00,,---,0.00,VWS V14.01,2013-06-11 07:42:00,
2013-06-11 00:47:00,68.9,43.0,29.94,SW,221,8.0,13.0,39,0.00,,---,0.00,VWS V14.01,2013-06-11 07:47:00,
2013-06-11 00:52:00,69.0,43.0,29.94,West,277,6.0,14.0,39,0.00,,---,0.00,VWS V14.01,2013-06-11 07:52:00,
2013-06-11 00:57:00,69.0,43.0,29.93,WSW,253,5.0,15.0,39,0.00,,---,0.00,VWS V14.01,2013-06-11 07:57:00,
2013-06-11 01:00:00,68.9,43.0,29.93,WSW,253,5.0,15.0,39,0.00,,---,0.00,VWS V14.01,2013-06-11 08:00:00,
2013-06-11 01:02:00,68.8,43.5,29.94,West,263,9.0,13.0,40,0.00,,---,0.00,VWS V14.01,2013-06-11 08:02:00,
2013-06-11 01:07:00,68.6,43.3,29.94,WNW,300,8.0,13.0,40,0.00,,---,0.00,VWS V14.01,2013-06-11 08:07:00,
2013-06-11 01:12:00,68.1,43.5,29.94,WNW,284,7.0,13.0,41,0.00,,---,0.00,VWS V14.01,2013-06-11 08:12:00,
2013-06-11 01:17:00,68.1,42.9,29.94,NW,325,8.0,13.0,40,0.00,,---,0.00,VWS V14.01,2013-06-11 08:17:00,
2013-06-11 01:22:00,68.3,43.7,29.93,West,276,9.0,16.0,41,0.00,,---,0.00,VWS V14.01,2013-06-11 08:22:00,
2013-06-11 01:27:00,68.2,44.3,29.93,WSW,245,9.0,16.0,42,0.00,,---,0.00,VWS V14.01,2013-06-11 08:27:00,
2013-06-11 01:30:00,68.2,44.3,29.93,WSW,248,9.0,16.0,42,0.00,,---,0.00,VWS V14.01,2013-06-11 08:30:00,
2013-06-11 01:32:00,67.9,44.0,29.93,West,264,7.0,15.0,42,0.00,,---,0.00,VWS V14.01,2013-06-11 08:32:00,
2013-06-11 01:37:00,67.7,43.8,29.93,WNW,283,8.0,15.0,42,0.00,,---,0.00,VWS V14.01,2013-06-11 08:37:00,
2013-06-11 01:42:00,67.9,43.4,29.93,WNW,291,12.0,19.0,41,0.00,,---,0.00,VWS V14.01,2013-06-11 08:42:00,
2013-06-11 01:47:00,67.9,43.4,29.93,WNW,290,8.0,19.0,41,0.00,,---,0.00,VWS V14.01,2013-06-11 08:47:00,
2013-06-11 01:52:00,67.8,43.3,29.92,West,269,10.0,19.0,41,0.00,,---,0.00,VWS V14.01,2013-06-11 08:52:00,
2013-06-11 01:57:00,67.9,43.4,29.92,West,274,5.0,19.0,41,0.00,,---,0.00,VWS V14.01,2013-06-11 08:57:00,
2013-06-11 02:00:00,67.8,43.3,29.92,West,276,6.0,19.0,41,0.00,,---,0.00,VWS V14.01,2013-06-11 09:00:00,
2013-06-11 02:02:00,67.7,43.8,29.93,West,264,5.0,14.0,42,0.00,,---,0.00,VWS V14.01,2013-06-11 09:02:00,
2013-06-11 02:07:00,67.6,43.1,29.93,West,280,6.0,14.0,41,0.00,,---,0.00,VWS V14.01,2013-06-11 09:07:00,
2013-06-11 02:12:00,67.7,43.2,29.93,WSW,255,8.0,15.0,41,0.00,,---,0.00,VWS V14.01,2013-06-11 09:12:00,
2013-06-11 02:17:00,67.6,43.7,29.93,WSW,249,3.0,15.0,42,0.00,,---,0.00,VWS V14.01,2013-06-11 09:17:00,
2013-06-11 02:22:00,67.6,41.8,29.93,West,278,8.0,15.0,39,0.00,,---,0.00,VWS V14.01,2013-06-11 09:22:00,
2013-06-11 02:27:00,67.7,41.9,29.93,West,259,6.0,15.0,39,0.00,,---,0.00,VWS V14.01,2013-06-11 09:27:00,
2013-06-11 02:30:00,67.7,41.2,29.93,SW,232,2.0,15.0,38,0.00,,---,0.00,VWS V14.01,2013-06-11 09:30:00,
2013-06-11 02:32:00,67.5,42.3,29.93,SW,229,7.0,12.0,40,0.00,,---,0.00,VWS V14.01,2013-06-11 09:32:00,
2013-06-11 02:37:00,67.4,40.9,29.93,West,262,5.0,12.0,38,0.00,,---,0.00,VWS V14.01,2013-06-11 09:37:00,
2013-06-11 02:42:00,67.4,40.9,29.93,SW,232,5.0,12.0,38,0.00,,---,0.00,VWS V14.01,2013-06-11 09:42:00,
2013-06-11 02:47:00,67.5,41.0,29.93,WSW,245,6.0,12.0,38,0.00,,---,0.00,VWS V14.01,2013-06-11 09:47:00,
2013-06-11 02:52:00,67.6,40.4,29.93,West,259,8.0,12.0,37,0.00,,---,0.00,VWS V14.01,2013-06-11 09:52:00,
2013-06-11 02:57:00,67.5,41.0,29.93,WNW,295,3.0,12.0,38,0.00,,---,0.00,VWS V14.01,2013-06-11 09:57:00,
2013-06-11 03:00:00,67.4,40.9,29.93,WSW,255,4.0,12.0,38,0.00,,---,0.00,VWS V14.01,2013-06-11 10:00:00,
2013-06-11 03:02:00,67.4,40.9,29.93,West,273,8.0,13.0,38,0.00,,---,0.00,VWS V14.01,2013-06-11 10:02:00,
2013-06-11 03:07:00,67.3,42.2,29.93,WNW,290,5.0,13.0,40,0.00,,---,0.00,VWS V14.01,2013-06-11 10:07:00,
2013-06-11 03:12:00,67.1,41.3,29.93,SW,232,5.0,13.0,39,0.00,,---,0.00,VWS V14.01,2013-06-11 10:12:00,
2013-06-11 03:17:00,67.2,41.4,29.93,West,276,4.0,13.0,39,0.00,,---,0.00,VWS V14.01,2013-06-11 10:17:00,
2013-06-11 03:22:00,67.2,40.1,29.93,WSW,248,3.0,13.0,37,0.00,,---,0.00,VWS V14.01,2013-06-11 10:22:00,
2013-06-11 03:27:00,67.5,40.3,29.93,WNW,289,5.0,13.0,37,0.00,,---,0.00,VWS V14.01,2013-06-11 10:27:00,
2013-06-11 03:30:00,67.5,41.0,29.93,West,273,8.0,14.0,38,0.00,,---,0.00,VWS V14.01,2013-06-11 10:30:00,
2013-06-11 03:32:00,67.4,40.9,29.94,West,267,5.0,11.0,38,0.00,,---,0.00,VWS V14.01,2013-06-11 10:32:00,
2013-06-11 03:37:00,67.4,41.6,29.94,WSW,250,5.0,13.0,39,0.00,,---,0.00,VWS V14.01,2013-06-11 10:37:00,
2013-06-11 03:42:00,67.3,40.2,29.94,WSW,249,5.0,13.0,37,0.00,,---,0.00,VWS V14.01,2013-06-11 10:42:00,
2013-06-11 03:47:00,67.5,40.3,29.94,WSW,255,9.0,13.0,37,0.00,,---,0.00,VWS V14.01,2013-06-11 10:47:00,
2013-06-11 03:52:00,67.4,40.9,29.94,WSW,255,7.0,13.0,38,0.00,,---,0.00,VWS V14.01,2013-06-11 10:52:00,
2013-06-11 03:57:00,67.3,40.8,29.94,WSW,250,5.0,13.0,38,0.00,,---,0.00,VWS V14.01,2013-06-11 10:57:00,
2013-06-11 04:00:00,67.2,40.8,29.94,West,281,6.0,13.0,38,0.00,,---,0.00,VWS V14.01,2013-06-11 11:00:00,
2013-06-11 04:02:00,67.2,40.8,29.94,West,273,5.0,8.0,38,0.00,,---,0.00,VWS V14.01,2013-06-11 11:02:00,
2013-06-11 04:07:00,66.9,41.2,29.93,WSW,238,3.0,9.0,39,0.00,,---,0.00,VWS V14.01,2013-06-11 11:07:00,
2013-06-11 04:12:00,66.6,41.5,29.93,West,274,2.0,9.0,40,0.00,,---,0.00,VWS V14.01,2013-06-11 11:12:00,
2013-06-11 04:17:00,66.4,41.4,29.93,WSW,253,5.0,9.0,40,0.00,,---,0.00,VWS V14.01,2013-06-11 11:17:00,
2013-06-11 04:22:00,66.5,41.5,29.93,West,271,3.0,9.0,40,0.00,,---,0.00,VWS V14.01,2013-06-11 11:22:00,
2013-06-11 04:27:00,66.5,40.8,29.93,WNW,288,4.0,9.0,39,0.00,,---,0.00,VWS V14.01,2013-06-11 11:27:00,
2013-06-11 04:30:00,66.4,40.7,29.93,West,270,3.0,9.0,39,0.00,,---,0.00,VWS V14.01,2013-06-11 11:30:00,
2013-06-11 04:32:00,66.3,40.6,29.93,West,270,3.0,7.0,39,0.00,,---,0.00,VWS V14.01,2013-06-11 11:32:00,
2013-06-11 04:37:00,66.4,40.0,29.93,WNW,293,5.0,8.0,38,0.00,,---,0.00,VWS V14.01,2013-06-11 11:37:00,
2013-06-11 04:42:00,66.8,39.7,29.93,WNW,285,5.0,8.0,37,0.00,,---,0.00,VWS V14.01,2013-06-11 11:42:00,
2013-06-11 04:47:00,67.0,39.2,29.93,West,263,3.0,8.0,36,0.00,,---,0.00,VWS V14.01,2013-06-11 11:47:00,
2013-06-11 04:52:00,66.9,39.1,29.93,West,281,6.0,8.0,36,0.00,,---,0.00,VWS V14.01,2013-06-11 11:52:00,
2013-06-11 04:57:00,66.6,38.8,29.92,West,277,8.0,8.0,36,0.00,,---,0.00,VWS V14.01,2013-06-11 11:57:00,
2013-06-11 05:00:00,66.5,38.8,29.93,SW,227,6.0,8.0,36,0.00,,---,0.00,VWS V14.01,2013-06-11 12:00:00,
2013-06-11 05:02:00,66.9,37.7,29.93,WNW,297,11.0,12.0,34,0.00,,---,0.00,VWS V14.01,2013-06-11 12:02:00,
2013-06-11 05:07:00,67.4,37.3,29.93,WSW,257,4.0,12.0,33,0.00,,---,0.00,VWS V14.01,2013-06-11 12:07:00,
2013-06-11 05:12:00,67.5,37.4,29.93,WSW,255,3.0,12.0,33,0.00,,---,0.00,VWS V14.01,2013-06-11 12:12:00,
2013-06-11 05:17:00,67.3,37.2,29.93,West,274,3.0,12.0,33,0.00,,---,0.00,VWS V14.01,2013-06-11 12:17:00,
2013-06-11 05:22:00,67.3,37.2,29.93,SW,226,7.0,12.0,33,0.00,,---,0.00,VWS V14.01,2013-06-11 12:22:00,
2013-06-11 05:27:00,67.0,38.5,29.94,SW,230,5.0,12.0,35,0.00,,---,0.00,VWS V14.01,2013-06-11 12:27:00,
2013-06-11 05:30:00,66.9,38.4,29.94,WSW,245,4.0,12.0,35,0.00,,---,0.00,VWS V14.01,2013-06-11 12:30:00,
2013-06-11 05:32:00,66.4,38.7,29.93,West,273,4.0,8.0,36,0.00,,---,0.00,VWS V14.01,2013-06-11 12:32:00,
2013-06-11 05:37:00,66.2,38.5,29.93,West,267,5.0,8.0,36,0.00,,---,0.00,VWS V14.01,2013-06-11 12:37:00,
2013-06-11 05:42:00,66.2,37.8,29.94,SW,214,4.0,8.0,35,0.00,,---,0.00,VWS V14.01,2013-06-11 12:42:00,
2013-06-11 05:47:00,66.6,37.4,29.94,NW,305,3.0,9.0,34,0.00,,---,0.00,VWS V14.01,2013-06-11 12:47:00,
2013-06-11 05:52:00,66.9,36.9,29.94,West,269,3.0,9.0,33,0.00,,---,0.00,VWS V14.01,2013-06-11 12:52:00,
2013-06-11 05:57:00,67.2,37.2,29.94,West,277,5.0,9.0,33,0.00,,---,0.00,VWS V14.01,2013-06-11 12:57:00,
2013-06-11 06:00:00,67.2,37.2,29.94,WNW,293,2.0,9.0,33,0.00,,---,0.00,VWS V14.01,2013-06-11 13:00:00,
2013-06-11 06:02:00,67.2,37.2,29.94,West,273,3.0,5.0,33,0.00,,---,0.00,VWS V14.01,2013-06-11 13:02:00,
2013-06-11 06:07:00,67.4,37.3,29.94,West,270,4.0,6.0,33,0.00,,---,0.00,VWS V14.01,2013-06-11 13:07:00,
2013-06-11 06:12:00,67.7,36.8,29.94,WSW,242,2.0,6.0,32,0.00,,---,0.00,VWS V14.01,2013-06-11 13:12:00,
2013-06-11 06:17:00,68.5,35.9,29.94,West,280,3.0,6.0,30,0.00,,---,0.00,VWS V14.01,2013-06-11 13:17:00,
2013-06-11 06:22:00,69.5,35.9,29.94,West,278,3.0,6.0,29,0.00,,---,0.00,VWS V14.01,2013-06-11 13:22:00,
2013-06-11 06:27:00,70.5,34.9,29.93,West,260,3.0,7.0,27,0.00,,---,0.00,VWS V14.01,2013-06-11 13:27:00,
2013-06-11 06:30:00,70.7,35.1,29.93,WNW,293,6.0,7.0,27,0.00,,---,0.00,VWS V14.01,2013-06-11 13:30:00,
2013-06-11 06:32:00,71.2,34.6,29.94,WSW,245,5.0,7.0,26,0.00,,---,0.00,VWS V14.01,2013-06-11 13:32:00,
2013-06-11 06:37:00,71.7,34.0,29.94,WSW,248,5.0,7.0,25,0.00,,---,0.00,VWS V14.01,2013-06-11 13:37:00,
2013-06-11 06:42:00,72.1,34.4,29.94,West,264,4.0,8.0,25,0.00,,---,0.00,VWS V14.01,2013-06-11 13:42:00,
2013-06-11 06:47:00,72.5,33.7,29.94,WNW,289,5.0,8.0,24,0.00,,---,0.00,VWS V14.01,2013-06-11 13:47:00,
2013-06-11 06:52:00,72.7,34.9,29.94,WSW,252,3.0,8.0,25,0.00,,---,0.00,VWS V14.01,2013-06-11 13:52:00,
2013-06-11 06:57:00,73.0,35.1,29.94,SW,235,3.0,8.0,25,0.00,,---,0.00,VWS V14.01,2013-06-11 13:57:00,
2013-06-11 07:00:00,73.1,35.2,29.94,WSW,245,6.0,8.0,25,0.00,,---,0.00,VWS V14.01,2013-06-11 14:00:00,
2013-06-11 07:02:00,73.5,35.6,29.94,SW,235,4.0,9.0,25,0.00,,---,0.00,VWS V14.01,2013-06-11 14:02:00,
2013-06-11 07:07:00,73.9,35.9,29.94,West,262,3.0,9.0,25,0.00,,---,0.00,VWS V14.01,2013-06-11 14:07:00,
2013-06-11 07:12:00,74.5,36.4,29.95,WSW,254,4.0,9.0,25,0.00,,---,0.00,VWS V14.01,2013-06-11 14:12:00,
2013-06-11 07:17:00,75.1,34.8,29.95,WSW,248,7.0,9.0,23,0.00,,---,0.00,VWS V14.01,2013-06-11 14:17:00,
2013-06-11 07:22:00,75.8,35.4,29.95,WSW,256,3.0,9.0,23,0.00,,---,0.00,VWS V14.01,2013-06-11 14:22:00,
2013-06-11 07:27:00,76.3,34.7,29.95,West,267,4.0,9.0,22,0.00,,---,0.00,VWS V14.01,2013-06-11 14:27:00,
2013-06-11 07:30:00,76.4,34.8,29.95,WSW,239,4.0,9.0,22,0.00,,---,0.00,VWS V14.01,2013-06-11 14:30:00,
2013-06-11 07:32:00,76.7,33.9,29.95,WNW,285,3.0,10.0,21,0.00,,---,0.00,VWS V14.01,2013-06-11 14:32:00,
2013-06-11 07:37:00,77.1,33.0,29.95,SSW,201,5.0,11.0,20,0.00,,---,0.00,VWS V14.01,2013-06-11 14:37:00,
2013-06-11 07:42:00,77.6,34.6,29.96,West,276,6.0,11.0,21,0.00,,---,0.00,VWS V14.01,2013-06-11 14:42:00,
2013-06-11 08:00:00,79.2,35.9,29.96,West,270,6.0,12.0,21,0.00,,---,0.00,VWS V14.01,2013-06-11 15:00:00,
2013-06-11 08:30:00,81.6,35.4,29.96,West,270,5.0,13.0,19,0.00,,---,0.00,VWS V14.01,2013-06-11 15:30:00,
2013-06-11 09:00:00,83.8,35.8,29.96,West,270,5.0,13.0,18,0.00,,---,0.00,VWS V14.01,2013-06-11 16:00:00,
2013-06-11 09:30:00,86.2,33.2,29.96,West,270,5.0,11.0,15,0.00,,---,0.00,VWS V14.01,2013-06-11 16:30:00,
2013-06-11 10:00:00,89.2,32.0,29.95,West,270,4.0,9.0,13,0.00,,---,0.00,VWS V14.01,2013-06-11 17:00:00,
2013-06-11 10:30:00,90.5,33.0,29.96,West,270,3.0,9.0,13,0.00,,---,0.00,VWS V14.01,2013-06-11 17:30:00,
2013-06-11 11:00:00,92.5,32.6,29.95,West,270,3.0,8.0,12,0.00,,---,0.00,VWS V14.01,2013-06-11 18:00:00,
2013-06-11 11:30:00,93.3,33.2,29.96,NW,315,4.0,11.0,12,0.00,,---,0.00,VWS V14.01,2013-06-11 18:30:00,
2013-06-11 12:00:00,96.1,30.8,29.95,WNW,292,4.0,12.0,10,0.00,,---,0.00,VWS V14.01,2013-06-11 19:00:00,
2013-06-11 12:30:00,96.0,28.1,29.95,SSW,202,6.0,16.0,9,0.00,,---,0.00,VWS V14.01,2013-06-11 19:30:00,
2013-06-11 13:00:00,98.6,24.0,29.94,SSW,202,4.0,12.0,7,0.00,,---,0.00,VWS V14.01,2013-06-11 20:00:00,
2013-06-11 13:30:00,98.5,30.0,29.93,SSW,202,6.0,15.0,9,0.00,,---,0.00,VWS V14.01,2013-06-11 20:30:00,
2013-06-11 14:00:00,98.3,34.8,29.93,SSW,202,7.0,24.0,11,0.00,,---,0.00,VWS V14.01,2013-06-11 21:00:00,
2013-06-11 14:30:00,96.5,35.7,29.93,SSW,202,9.0,18.0,12,0.00,,---,0.00,VWS V14.01,2013-06-11 21:30:00,
2013-06-11 15:00:00,96.2,37.4,29.93,SSW,202,7.0,17.0,13,0.00,,---,0.00,VWS V14.01,2013-06-11 22:00:00,
2013-06-11 15:30:00,96.5,35.7,29.93,SSW,202,9.0,18.0,12,0.00,,---,0.00,VWS V14.01,2013-06-11 22:30:00,
2013-06-11 15:34:00,96.1,37.4,29.92,SSE,155,4.0,7.0,13,0.00,,---,0.00,VWS V14.01,2013-06-11 22:34:00,
2013-06-11 15:39:00,96.0,37.3,29.92,WSW,245,7.0,14.0,13,0.00,,---,0.00,VWS V14.01,2013-06-11 22:39:00,
2013-06-11 15:44:00,96.3,35.5,29.92,South,186,5.0,14.0,12,0.00,,---,0.00,VWS V14.01,2013-06-11 22:44:00,
2013-06-11 15:49:00,95.4,34.8,29.92,SSW,195,10.0,14.0,12,0.00,,---,0.00,VWS V14.01,2013-06-11 22:49:00,
2013-06-11 15:54:00,94.7,38.2,29.92,SW,235,10.0,17.0,14,0.00,,---,0.00,VWS V14.01,2013-06-11 22:54:00,
2013-06-11 15:59:00,94.8,38.2,29.92,WNW,284,4.0,5.0,14,0.00,,---,0.00,VWS V14.01,2013-06-11 22:59:00,
2013-06-11 16:00:00,94.7,38.2,29.92,South,188,4.0,17.0,14,0.00,,---,0.00,VWS V14.01,2013-06-11 23:00:00,
2013-06-11 16:04:00,95.7,37.0,29.91,SSW,201,5.0,18.0,13,0.00,,---,0.00,VWS V14.01,2013-06-11 23:04:00,
2013-06-11 16:09:00,96.3,37.5,29.92,West,281,2.0,18.0,13,0.00,,---,0.00,VWS V14.01,2013-06-11 23:09:00,
2013-06-11 16:14:00,96.2,37.4,29.92,WNW,285,7.0,18.0,13,0.00,,---,0.00,VWS V14.01,2013-06-11 23:14:00,
2013-06-11 16:19:00,95.1,38.5,29.92,West,278,5.0,18.0,14,0.00,,---,0.00,VWS V14.01,2013-06-11 23:19:00,
2013-06-11 16:24:00,94.8,32.2,29.91,SSE,159,10.0,18.0,11,0.00,,---,0.00,VWS V14.01,2013-06-11 23:24:00,
2013-06-11 16:29:00,94.5,34.1,29.91,South,184,12.0,22.0,12,0.00,,---,0.00,VWS V14.01,2013-06-11 23:29:00,
2013-06-11 16:30:00,94.7,34.3,29.91,SSW,198,10.0,18.0,12,0.00,,---,0.00,VWS V14.01,2013-06-11 23:30:00,
2013-06-11 16:34:00,94.1,33.8,29.92,SSW,198,5.0,22.0,12,0.00,,---,0.00,VWS V14.01,2013-06-11 23:34:00,
2013-06-11 16:39:00,92.9,34.9,29.92,WSW,244,3.0,22.0,13,0.00,,---,0.00,VWS V14.01,2013-06-11 23:39:00,
2013-06-11 16:44:00,92.8,36.7,29.92,NW,309,4.0,22.0,14,0.00,,---,0.00,VWS V14.01,2013-06-11 23:44:00,
2013-06-11 16:49:00,92.1,36.1,29.92,West,269,5.0,22.0,14,0.00,,---,0.00,VWS V14.01,2013-06-11 23:49:00,
2013-06-11 16:54:00,91.5,39.0,29.92,West,274,2.0,22.0,16,0.00,,---,0.00,VWS V14.01,2013-06-11 23:54:00,
2013-06-11 16:59:00,91.3,38.9,29.92,West,264,2.0,4.0,16,0.00,,---,0.00,VWS V14.01,2013-06-11 23:59:00,
2013-06-11 17:00:00,91.4,40.5,29.92,South,169,4.0,22.0,17,0.00,,---,0.00,VWS V14.01,2013-06-12 00:00:00,
2013-06-11 17:04:00,91.5,40.6,29.92,NW,312,3.0,8.0,17,0.00,,---,0.00,VWS V14.01,2013-06-12 00:04:00,
2013-06-11 17:09:00,90.9,40.1,29.92,NW,315,3.0,18.0,17,0.00,,---,0.00,VWS V14.01,2013-06-12 00:09:00,
2013-06-11 17:14:00,91.1,40.3,29.92,West,263,5.0,18.0,17,0.00,,---,0.00,VWS V14.01,2013-06-12 00:14:00,
2013-06-11 17:19:00,90.5,39.8,29.92,West,278,4.0,18.0,17,0.00,,---,0.00,VWS V14.01,2013-06-12 00:19:00,
2013-06-11 17:24:00,89.7,39.1,29.92,West,273,0.0,18.0,17,0.00,,---,0.00,VWS V14.01,2013-06-12 00:24:00,
2013-06-11 17:29:00,89.4,38.9,29.92,SSW,207,2.0,6.0,17,0.00,,---,0.00,VWS V14.01,2013-06-12 00:29:00,
2013-06-11 17:30:00,89.4,38.9,29.92,WSW,246,6.0,18.0,17,0.00,,---,0.00,VWS V14.01,2013-06-12 00:30:00,
2013-06-11 17:34:00,89.6,39.1,29.92,West,279,4.0,9.0,17,0.00,,---,0.00,VWS V14.01,2013-06-12 00:34:00,
2013-06-11 17:39:00,89.7,39.1,29.92,WNW,290,5.0,9.0,17,0.00,,---,0.00,VWS V14.01,2013-06-12 00:39:00,
2013-06-11 17:44:00,89.2,38.7,29.92,WSW,237,6.0,9.0,17,0.00,,---,0.00,VWS V14.01,2013-06-12 00:44:00,
2013-06-11 17:49:00,88.9,38.5,29.92,West,263,7.0,9.0,17,0.00,,---,0.00,VWS V14.01,2013-06-12 00:49:00,
2013-06-11 17:54:00,88.6,38.2,29.92,WNW,298,6.0,9.0,17,0.00,,---,0.00,VWS V14.01,2013-06-12 00:54:00,
2013-06-11 17:59:00,88.4,38.1,29.92,SW,232,8.0,10.0,17,0.00,,---,0.00,VWS V14.01,2013-06-12 00:59:00,
2013-06-11 18:00:00,88.4,38.1,29.92,West,276,3.0,9.0,17,0.00,,---,0.00,VWS V14.01,2013-06-12 01:00:00,
2013-06-11 18:04:00,88.1,37.8,29.92,WSW,247,5.0,10.0,17,0.00,,---,0.00,VWS V14.01,2013-06-12 01:04:00,
2013-06-11 18:09:00,88.4,38.1,29.92,WSW,250,3.0,10.0,17,0.00,,---,0.00,VWS V14.01,2013-06-12 01:09:00,
2013-06-11 18:14:00,87.9,37.7,29.92,West,277,5.0,10.0,17,0.00,,---,0.00,VWS V14.01,2013-06-12 01:14:00,
2013-06-11 18:19:00,87.5,37.4,29.92,West,270,6.0,12.0,17,0.00,,---,0.00,VWS V14.01,2013-06-12 01:19:00,
2013-06-11 18:24:00,87.2,38.6,29.92,West,278,6.0,12.0,18,0.00,,---,0.00,VWS V14.01,2013-06-12 01:24:00,
2013-06-11 18:29:00,87.0,37.0,29.92,NW,309,3.0,6.0,17,0.00,,---,0.00,VWS V14.01,2013-06-12 01:29:00,
2013-06-11 18:30:00,87.1,38.5,29.92,NW,305,5.0,12.0,18,0.00,,---,0.00,VWS V14.01,2013-06-12 01:30:00,
2013-06-11 18:34:00,86.7,38.2,29.92,NNW,338,6.0,7.0,18,0.00,,---,0.00,VWS V14.01,2013-06-12 01:34:00,
2013-06-11 18:39:00,86.7,38.2,29.92,WNW,298,5.0,10.0,18,0.00,,---,0.00,VWS V14.01,2013-06-12 01:39:00,
2013-06-11 18:44:00,86.4,36.5,29.92,West,264,6.0,10.0,17,0.00,,---,0.00,VWS V14.01,2013-06-12 01:44:00,
2013-06-11 18:49:00,86.1,37.7,29.92,WNW,285,4.0,10.0,18,0.00,,---,0.00,VWS V14.01,2013-06-12 01:49:00,
2013-06-11 18:54:00,85.8,38.8,29.92,WSW,253,7.0,11.0,19,0.00,,---,0.00,VWS V14.01,2013-06-12 01:54:00,
2013-06-11 18:59:00,85.4,38.5,29.92,West,278,1.0,2.0,19,0.00,,---,0.00,VWS V14.01,2013-06-12 01:59:00,
2013-06-11 19:00:00,85.4,37.1,29.92,South,182,1.0,11.0,18,0.00,,---,0.00,VWS V14.01,2013-06-12 02:00:00,
2013-06-11 19:04:00,85.3,38.4,29.93,WSW,255,5.0,5.0,19,0.00,,---,0.00,VWS V14.01,2013-06-12 02:04:00,
2013-06-11 19:09:00,85.7,37.4,29.93,West,259,5.0,9.0,18,0.00,,---,0.00,VWS V14.01,2013-06-12 02:09:00,
2013-06-11 19:14:00,85.7,38.7,29.93,WSW,250,4.0,9.0,19,0.00,,---,0.00,VWS V14.01,2013-06-12 02:14:00,
2013-06-11 19:19:00,86.1,37.7,29.93,West,278,7.0,9.0,18,0.00,,---,0.00,VWS V14.01,2013-06-12 02:19:00,
2013-06-11 19:24:00,86.1,37.7,29.93,West,266,4.0,10.0,18,0.00,,---,0.00,VWS V14.01,2013-06-12 02:24:00,
2013-06-11 19:29:00,85.9,38.9,29.93,WSW,255,4.0,8.0,19,0.00,,---,0.00,VWS V14.01,2013-06-12 02:29:00,
2013-06-11 19:30:00,85.9,38.9,29.93,WNW,287,8.0,10.0,19,0.00,,---,0.00,VWS V14.01,2013-06-12 02:30:00,
2013-06-11 19:34:00,85.8,38.8,29.93,NW,305,3.0,8.0,19,0.00,,---,0.00,VWS V14.01,2013-06-12 02:34:00,
2013-06-11 19:39:00,85.5,37.2,29.93,WNW,284,4.0,9.0,18,0.00,,---,0.00,VWS V14.01,2013-06-12 02:39:00,
2013-06-11 19:44:00,85.2,38.3,29.93,WSW,252,5.0,10.0,19,0.00,,---,0.00,VWS V14.01,2013-06-12 02:44:00,
2013-06-11 19:49:00,84.5,37.8,29.93,WSW,237,3.0,10.0,19,0.00,,---,0.00,VWS V14.01,2013-06-12 02:49:00,
2013-06-11 19:54:00,83.8,37.2,29.93,West,270,2.0,10.0,19,0.00,,---,0.00,VWS V14.01,2013-06-12 02:54:00,
2013-06-11 19:59:00,83.3,38.1,29.93,WSW,257,4.0,4.0,20,0.00,,---,0.00,VWS V14.01,2013-06-12 02:59:00,
2013-06-11 20:00:00,83.4,36.9,29.93,WNW,290,3.0,10.0,19,0.00,,---,0.00,VWS V14.01,2013-06-12 03:00:00,
2013-06-11 20:04:00,82.8,37.7,29.94,West,279,6.0,7.0,20,0.00,,---,0.00,VWS V14.01,2013-06-12 03:04:00,
2013-06-11 20:09:00,82.2,38.4,29.94,SW,228,3.0,7.0,21,0.00,,---,0.00,VWS V14.01,2013-06-12 03:09:00,
2013-06-11 20:14:00,81.6,39.1,29.94,West,263,2.0,7.0,22,0.00,,---,0.00,VWS V14.01,2013-06-12 03:14:00,
2013-06-11 20:19:00,81.0,39.8,29.94,WSW,249,4.0,7.0,23,0.00,,---,0.00,VWS V14.01,2013-06-12 03:19:00,
2013-06-11 20:23:00,80.5,39.3,29.94,WNW,300,2.0,7.0,23,0.00,,---,0.00,VWS V14.01,2013-06-12 03:23:00,
2013-06-11 20:28:00,80.4,39.2,29.94,West,277,5.0,6.0,23,0.00,,---,0.00,VWS V14.01,2013-06-12 03:28:00,
2013-06-11 20:30:00,80.4,39.2,29.94,West,262,3.0,7.0,23,0.00,,---,0.00,VWS V14.01,2013-06-12 03:30:00,
2013-06-11 20:33:00,80.2,39.1,29.94,West,281,2.0,6.0,23,0.00,,---,0.00,VWS V14.01,2013-06-12 03:33:00,
2013-06-11 20:38:00,79.7,39.8,29.94,West,266,2.0,6.0,24,0.00,,---,0.00,VWS V14.01,2013-06-12 03:38:00,
2013-06-11 20:43:00,79.3,39.4,29.94,SW,218,2.0,6.0,24,0.00,,---,0.00,VWS V14.01,2013-06-12 03:43:00,
2013-06-11 20:48:00,78.4,39.7,29.94,WNW,300,3.0,6.0,25,0.00,,---,0.00,VWS V14.01,2013-06-12 03:48:00,
2013-06-11 20:53:00,78.1,38.4,29.94,WSW,255,2.0,6.0,24,0.00,,---,0.00,VWS V14.01,2013-06-12 03:53:00,
2013-06-11 20:58:00,77.9,38.2,29.94,WSW,242,3.0,3.0,24,0.00,,---,0.00,VWS V14.01,2013-06-12 03:58:00,
2013-06-11 21:00:00,77.9,38.2,29.94,WNW,287,2.0,6.0,24,0.00,,---,0.00,VWS V14.01,2013-06-12 04:00:00,
2013-06-11 21:01:00,77.7,38.1,29.95,SW,226,2.0,4.0,24,0.00,,---,0.00,VWS V14.01,2013-06-12 04:01:00,
2013-06-11 21:06:00,77.3,38.8,29.95,WSW,247,7.0,7.0,25,0.00,,---,0.00,VWS V14.01,2013-06-12 04:06:00,
2013-06-11 21:11:00,77.2,39.7,29.95,WSW,253,5.0,7.0,26,0.00,,---,0.00,VWS V14.01,2013-06-12 04:11:00,
2013-06-11 21:16:00,76.6,39.2,29.95,West,269,4.0,7.0,26,0.00,,---,0.00,VWS V14.01,2013-06-12 04:16:00,
2013-06-11 21:21:00,76.2,38.8,29.95,WSW,255,1.0,7.0,26,0.00,,---,0.00,VWS V14.01,2013-06-12 04:21:00,
2013-06-11 21:26:00,75.8,38.5,29.95,WNW,284,3.0,7.0,26,0.00,,---,0.00,VWS V14.01,2013-06-12 04:26:00,
2013-06-11 21:30:00,75.7,38.4,29.95,West,267,0.0,7.0,26,0.00,,---,0.00,VWS V14.01,2013-06-12 04:30:00,
2013-06-11 21:31:00,75.4,38.2,29.95,West,279,3.0,4.0,26,0.00,,---,0.00,VWS V14.01,2013-06-12 04:31:00,
2013-06-11 21:36:00,75.0,37.8,29.96,WSW,257,4.0,5.0,26,0.00,,---,0.00,VWS V14.01,2013-06-12 04:36:00,
2013-06-11 21:41:00,74.7,38.5,29.96,West,276,2.0,5.0,27,0.00,,---,0.00,VWS V14.01,2013-06-12 04:41:00,
2013-06-11 21:46:00,74.9,37.7,29.96,WNW,286,3.0,5.0,26,0.00,,---,0.00,VWS V14.01,2013-06-12 04:46:00,
2013-06-11 21:52:00,74.8,38.6,29.96,West,267,2.0,5.0,27,0.00,,---,0.00,VWS V14.01,2013-06-12 04:52:00,
2013-06-11 21:57:00,74.6,38.5,29.96,West,279,3.0,5.0,27,0.00,,---,0.00,VWS V14.01,2013-06-12 04:57:00,
2013-06-11 22:00:00,74.6,38.4,29.96,WSW,248,4.0,5.0,27,0.00,,---,0.00,VWS V14.01,2013-06-12 05:00:00,
2013-06-11 22:02:00,74.7,38.5,29.96,WNW,289,3.0,5.0,27,0.00,,---,0.00,VWS V14.01,2013-06-12 05:02:00,
2013-06-11 22:07:00,74.8,38.6,29.97,WNW,290,3.0,5.0,27,0.00,,---,0.00,VWS V14.01,2013-06-12 05:07:00,
2013-06-11 22:12:00,74.6,39.4,29.97,SW,218,2.0,5.0,28,0.00,,---,0.00,VWS V14.01,2013-06-12 05:12:00,
2013-06-11 22:17:00,74.3,39.1,29.97,WSW,252,3.0,5.0,28,0.00,,---,0.00,VWS V14.01,2013-06-12 05:17:00,
2013-06-11 22:22:00,74.3,39.1,29.97,WSW,252,4.0,6.0,28,0.00,,---,0.00,VWS V14.01,2013-06-12 05:22:00,
2013-06-11 22:27:00,74.3,39.1,29.97,West,263,2.0,6.0,28,0.00,,---,0.00,VWS V14.01,2013-06-12 05:27:00,
2013-06-11 22:30:00,74.3,39.1,29.97,SW,235,3.0,6.0,28,0.00,,---,0.00,VWS V14.01,2013-06-12 05:30:00,
2013-06-11 22:32:00,74.2,39.0,29.97,SW,226,2.0,5.0,28,0.00,,---,0.00,VWS V14.01,2013-06-12 05:32:00,
2013-06-11 22:37:00,74.2,39.0,29.96,WSW,252,2.0,6.0,28,0.00,,---,0.00,VWS V14.01,2013-06-12 05:37:00,
2013-06-11 22:42:00,74.1,38.0,29.96,WSW,252,1.0,6.0,27,0.00,,---,0.00,VWS V14.01,2013-06-12 05:42:00,
2013-06-11 22:47:00,74.3,38.2,29.96,West,270,5.0,7.0,27,0.00,,---,0.00,VWS V14.01,2013-06-12 05:47:00,
2013-06-11 22:52:00,74.3,38.2,29.96,WSW,257,3.0,7.0,27,0.00,,---,0.00,VWS V14.01,2013-06-12 05:52:00,
2013-06-11 22:57:00,74.2,38.1,29.96,West,264,4.0,7.0,27,0.00,,---,0.00,VWS V14.01,2013-06-12 05:57:00,
2013-06-11 23:00:00,74.3,38.2,29.96,WNW,300,3.0,7.0,27,0.00,,---,0.00,VWS V14.01,2013-06-12 06:00:00,
2013-06-11 23:02:00,74.2,38.1,29.96,West,281,3.0,6.0,27,0.00,,---,0.00,VWS V14.01,2013-06-12 06:02:00,
2013-06-11 23:07:00,74.0,37.9,29.96,West,266,4.0,6.0,27,0.00,,---,0.00,VWS V14.01,2013-06-12 06:07:00,
2013-06-11 23:12:00,73.8,38.7,29.96,WNW,287,2.0,6.0,28,0.00,,---,0.00,VWS V14.01,2013-06-12 06:12:00,
2013-06-11 23:17:00,73.3,39.2,29.96,West,273,3.0,6.0,29,0.00,,---,0.00,VWS V14.01,2013-06-12 06:17:00,
2013-06-11 23:22:00,73.1,39.0,29.96,West,260,4.0,6.0,29,0.00,,---,0.00,VWS V14.01,2013-06-12 06:22:00,
2013-06-11 23:27:00,72.9,38.8,29.96,West,269,3.0,7.0,29,0.00,,---,0.00,VWS V14.01,2013-06-12 06:27:00,
2013-06-11 23:30:00,73.0,38.9,29.96,WSW,249,4.0,7.0,29,0.00,,---,0.00,VWS V14.01,2013-06-12 06:30:00,
2013-06-11 23:32:00,73.0,38.9,29.96,WSW,248,4.0,6.0,29,0.00,,---,0.00,VWS V14.01,2013-06-12 06:32:00,
2013-06-11 23:37:00,72.9,38.8,29.96,West,259,3.0,6.0,29,0.00,,---,0.00,VWS V14.01,2013-06-12 06:37:00,
2013-06-11 23:42:00,73.0,38.9,29.96,WSW,248,4.0,6.0,29,0.00,,---,0.00,VWS V14.01,2013-06-12 06:42:00,
2013-06-11 23:47:00,72.9,38.8,29.96,West,277,3.0,6.0,29,0.00,,---,0.00,VWS V14.01,2013-06-12 06:47:00,
2013-06-11 23:52:00,72.6,38.5,29.96,West,267,3.0,6.0,29,0.00,,---,0.00,VWS V14.01,2013-06-12 06:52:00,
2013-06-11 23:57:00,72.5,38.5,29.96,WSW,248,2.0,8.0,29,0.00,,---,0.00,VWS V14.01,2013-06-12 06:57:00,